Baker, NV

3:34 AM PDT on October 22, 2014 (GMT -0700)
Hwy 488 | Change Station
CLOSE
Current Station
Personal Weather Station
Location: Baker, NV
Elevation: 6437 ft
Nearby Weather Stations

Elev 6437 ft 39.01 °N, 114.20 °W | Updated 1 minute ago

Partly Cloudy
Partly Cloudy
37.0 °F
Feels Like 34 °F
N
4.2
Wind Variable Wind from West

Today
High -- | Low -- °F
--% Chance of Precip.
Yesterday
High -- | Low -- °F
Precip. -- in
6:53 AM 5:48 PM
Waning Crescent, 2% visible
Pressure 30.07 in
Visibility 10.0 miles
Clouds Few 9000 ft
Windchill 34 °F
Dew Point 22 °F
Humidity 53%
Rainfall 0.00 in
Snow Depth Not available.
UV 0 out of 12
Pollen 2.40 out of 12
Air Quality Not available.
Flu Activity No Activity
METAR KELY 220953Z AUTO 16007KT 10SM FEW090 M03/M12 A3016 RMK AO2 SLP181 T10331122

More Conditions Fewer Conditions

Pressure 30.07 in
Visibility 10.0 miles
Clouds Few 9000 ft
Windchill 34 °F
Dew Point 22 °F
Humidity 53%
Rainfall 0.00 in
Snow Depth Not available.
UV 0 out of 12
Pollen 2.40 out of 12
Air Quality Not available.
Flu Activity No Activity
METAR KELY 220953Z AUTO 16007KT 10SM FEW090 M03/M12 A3016 RMK AO2 SLP181 T10331122

More Conditions Fewer Conditions

10-Day Weather Forecast

Almanac

Astronomy

Oct. 22, 2014 Rise Set
Actual Time 6:53 AM PDT 5:48 PM PDT
Civil Twilight 6:26 AM PDT 6:15 PM PDT
Nautical Twilight 5:55 AM PDT 6:46 PM PDT
Astronomical Twilight 5:24 AM PDT 7:17 PM PDT
Moon 5:39 AM PDT 5:16 PM PDT
Length of Visible Light 11h 49m
Length of Day
10h 54m
Tomorrow will be 2m 23s shorter.
Waning Crescent, 2% of the Moon is Illuminated
Today
Waning Crescent
Oct 23
New
Oct 30
First Quarter
Nov 6
Full
Nov 14
Last Quarter

Today's Extremes

State Highs State Lows

Community

WunderPhotos

Upload Photos

1,763,900 photos uploaded!

Nearby

Snow Depth

Station Depth Elevation
Ward Mountain 1 in 9200 ft
Diamond Peak 1 in 8000 ft
Corral Canyon 1 in 8500 ft
Green Mountain 1 in 8000 ft
Lamoille #3 1 in 7700 ft

Earthquake Activity

City Distance Mag. Time & Date
No recent earthquake activity has been reported nearby.
Minimum magnitude displayed is 2.5.

Coastal Water Temperatures

Place Temperature
No Stations Reporting

Nearby Weather Stations